Roberts Field
KRDM : now visible

Airfield :











YOU CAN JOIN US ON...

 
LOGIN :

Register | Disclaimer

   EN    FR    IT 

 









Legend :    VFR   Marginal VFR   IFR   Intensive IFR   Very Intensive IFR
Visi :
Ceiling :
>= 8 km
>= 3000ft
5 to 8 km
1000 to 3000 ft
1500m to 5 km
500 to 1000 ft
800 to 1500m
200 to 500 ft
< 800m
< 200 ft
Symbols :   Thunderstorms  Fog  Heavy snow  Heavy precipitations  Wind > 20 kt






- Airport Elevation : 3080 ft
- IATA code : RDM


KRDM - Roberts Field

CURRENT METAR :
  • 191056Z AUTO 00000KT 5SM BR BKN075 04/03 A3004 RMK AO2 SLP165 T00440028

EXPIRED METARs :
  • 191041Z AUTO 00000KT 10SM CLR 04/03 A3004 RMK AO2 T00440033
  • 191016Z AUTO 00000KT 1/2SM FG CLR 04/03 A3004 RMK AO2 T00390028
  • 190956Z AUTO 00000KT 1 1/2SM BR FEW070 05/03 A3004 RMK AO2 VIS 3/4V4 SLP165 T00500033
  • 190925Z AUTO 00000KT 8SM CLR 06/04 A3004 RMK AO2 T00560039
  • 190856Z AUTO 00000KT 6SM BR CLR 06/04 A3004 RMK AO2 SLP166 T00560044 50006
  • 190842Z AUTO 00000KT 1/2SM FG FEW085 06/05 A3005 RMK AO2 T00610050
  • 190833Z AUTO 00000KT 1 3/4SM BR CLR 07/05 A3005 RMK AO2 T00670050

TAF KRDM
Valid from the 19 at 12:00 until the 20 at 12:00 UTC


191120Z 1912/2012 VRB05KT P6SM BKN070
TEMPO 1912/1916 2SM BR FU
FM192000 31011G19KT P6SM SCT070
FM200400 VRB04KT P6SM SKC
KZSE FIR / North America



MET'MAP, your aeronautical weather chart ! - Copyright ORBIFLY December 2007 - Disclaimer

ORBIFLY MET'MAP TEAM :

Programming & Development : Alexandra Zaïnal
Concept & original design : Baudouin d'Aumeries
Assistance for programming : Marc-Olivier Méhu
Technical & hardware support : Manuel Goepfert

Contact : metmap@orbifly.com




SOURCES & CREDITS :

   NOAA       Earth
Advisory